NK75 weather

Thomas E. Perdue Heliport
Massena, New York, United States

Public forecast

Using degrees Fahrenheit for public forecast. Weather courtesy of forecast.io.

Closest aviation weather report (METAR) to Thomas E. Perdue Heliport

Closest report is Massena International Richards Field, 2.7 nm (5.0 km) E. Retrieved 2020/06/02 10:53 UTC (8 minutes ago):

KMSS 021053Z AUTO 00000KT 10SM -RA OVC080 08/07 A3000 RMK AO2 RAB48 SLP162 P0000 T00830067

Closest aviation forecast (TAF) to Thomas E. Perdue Heliport

Closest forecast is Massena International Richards Field, 2.7 nm (5.0 km) E. Retrieved 2020/06/02 06:33 UTC (4 hours ago):

TAF KMSS 020531Z 0206/0306 07004KT P6SM SCT070 FM021100 VRB03KT P6SM VCSH BKN070 FM021400 17005KT P6SM BKN050 FM021800 20007KT P6SM VCSH OVC035 FM030300 20005KT P6SM VCSH OVC025